createdAt,value
2018-06-15T00:00:34.220Z,8.0
2018-06-15T00:01:34.066Z,8.2
2018-06-15T00:02:34.552Z,8.2
2018-06-15T00:03:34.335Z,8.2
2018-06-15T00:04:34.064Z,8.2
2018-06-15T00:05:36.012Z,8.2
2018-06-15T00:06:34.501Z,8.6
2018-06-15T00:07:34.501Z,8.6
2018-06-15T00:08:34.769Z,8.6
2018-06-15T00:09:34.084Z,8.5
2018-06-15T00:10:34.476Z,8.5
2018-06-15T00:11:34.528Z,8.5
2018-06-15T00:12:34.133Z,8.5
2018-06-15T00:13:34.348Z,8.5
2018-06-15T00:14:34.606Z,8.4
2018-06-15T00:15:34.596Z,8.4
2018-06-15T00:16:34.301Z,8.2
2018-06-15T00:17:34.813Z,8.2
2018-06-15T00:18:34.355Z,8.2
2018-06-15T00:19:34.201Z,8.1
2018-06-15T00:20:34.254Z,8.1
2018-06-15T00:21:34.335Z,8.1
2018-06-15T00:22:34.530Z,8.1
2018-06-15T00:23:34.307Z,8.1
2018-06-15T00:24:34.890Z,8.1
2018-06-15T00:25:34.603Z,8.1
2018-06-15T00:26:34.585Z,8.2
2018-06-15T00:27:34.423Z,8.2
2018-06-15T00:28:34.324Z,8.2
2018-06-15T00:29:34.311Z,8.2
2018-06-15T00:30:34.359Z,8.2
2018-06-15T00:31:34.196Z,8.2
2018-06-15T00:32:34.581Z,8.0
2018-06-15T00:33:35.036Z,8.0
2018-06-15T00:34:36.565Z,8.0
2018-06-15T00:35:34.273Z,8.0
2018-06-15T00:36:34.618Z,8.0
2018-06-15T00:37:34.606Z,7.9
2018-06-15T00:38:34.184Z,7.9
2018-06-15T00:39:34.804Z,7.9
2018-06-15T00:40:34.321Z,7.9
2018-06-15T00:41:34.519Z,7.9
2018-06-15T00:42:34.434Z,7.9
2018-06-15T00:43:34.470Z,7.9
2018-06-15T00:44:44.646Z,7.9
2018-06-15T00:45:34.504Z,7.9
2018-06-15T00:46:35.323Z,7.9
2018-06-15T00:47:34.450Z,8.0
2018-06-15T00:48:34.481Z,8.0
2018-06-15T00:49:34.291Z,7.9
2018-06-15T00:50:34.792Z,7.9
2018-06-15T00:51:34.507Z,7.9
2018-06-15T00:52:34.557Z,7.9
2018-06-15T00:53:34.458Z,7.9
2018-06-15T00:55:26.889Z,7.9
2018-06-15T00:55:34.213Z,7.9
2018-06-15T00:56:34.297Z,7.9
2018-06-15T00:57:34.460Z,8.0
2018-06-15T00:58:35.127Z,8.0
2018-06-15T00:59:34.408Z,8.0
2018-06-15T01:00:34.622Z,8.0
2018-06-15T01:01:34.588Z,8.0
2018-06-15T01:02:34.391Z,7.9
2018-06-15T01:03:34.488Z,7.9
2018-06-15T01:04:34.435Z,7.9
2018-06-15T01:05:34.393Z,7.9
2018-06-15T01:06:34.478Z,7.9
2018-06-15T01:07:34.298Z,8.0
2018-06-15T01:08:34.450Z,8.0
2018-06-15T01:09:34.416Z,8.0
2018-06-15T01:10:34.270Z,8.1
2018-06-15T01:11:34.519Z,8.1
2018-06-15T01:12:34.471Z,8.1
2018-06-15T01:13:34.731Z,8.1
2018-06-15T01:14:34.720Z,8.1
2018-06-15T01:15:34.289Z,8.1
2018-06-15T01:16:34.270Z,8.1
2018-06-15T01:17:34.459Z,8.0
2018-06-15T01:19:35.215Z,8.0
2018-06-15T01:20:34.783Z,7.9
2018-06-15T01:21:34.427Z,7.9
2018-06-15T01:22:34.363Z,7.8
2018-06-15T01:23:35.005Z,7.8
2018-06-15T01:24:34.539Z,7.8
2018-06-15T01:25:34.812Z,7.8
2018-06-15T01:26:34.768Z,7.8
2018-06-15T01:27:34.416Z,7.8
2018-06-15T01:28:34.431Z,7.8
2018-06-15T01:29:34.400Z,7.8
2018-06-15T01:30:34.775Z,7.9
2018-06-15T01:31:37.279Z,7.9
2018-06-15T01:32:35.080Z,7.9
2018-06-15T01:33:35.669Z,8.0
2018-06-15T01:34:34.414Z,8.0
2018-06-15T01:35:34.771Z,7.9
2018-06-15T01:36:34.545Z,7.9
2018-06-15T01:37:34.833Z,7.9
2018-06-15T01:38:34.607Z,7.8
2018-06-15T01:39:34.411Z,7.8
2018-06-15T01:40:34.460Z,7.8
2018-06-15T01:41:36.974Z,7.8
2018-06-15T01:42:34.477Z,7.8
2018-06-15T01:43:34.506Z,7.7
2018-06-15T01:44:35.409Z,7.7
2018-06-15T01:45:35.056Z,7.6
2018-06-15T01:46:34.496Z,7.6
2018-06-15T01:47:34.562Z,7.6
2018-06-15T01:48:34.770Z,7.6
2018-06-15T01:49:34.569Z,7.6
2018-06-15T01:50:34.943Z,7.8
2018-06-15T01:51:34.693Z,7.8
2018-06-15T01:52:34.606Z,7.8
2018-06-15T01:53:34.534Z,8.0
2018-06-15T01:54:34.865Z,8.0
2018-06-15T01:55:36.025Z,8.0
2018-06-15T01:56:35.376Z,8.0
2018-06-15T01:57:35.815Z,8.0
2018-06-15T01:58:35.083Z,8.0
2018-06-15T02:01:16.390Z,8.0
2018-06-15T02:01:24.175Z,8.0
2018-06-15T02:02:24.241Z,7.9
2018-06-15T02:03:23.983Z,7.8
2018-06-15T02:04:23.570Z,7.8
2018-06-15T02:05:24.078Z,7.8
2018-06-15T02:06:24.709Z,7.8
2018-06-15T02:07:23.800Z,7.8
2018-06-15T02:08:23.699Z,7.9
2018-06-15T02:09:23.742Z,7.9
2018-06-15T02:10:23.566Z,7.9
2018-06-15T02:11:23.988Z,8.0
2018-06-15T02:12:23.734Z,8.0
2018-06-15T02:13:23.640Z,8.0
2018-06-15T02:14:23.754Z,8.0
2018-06-15T02:15:23.701Z,8.0
2018-06-15T02:16:23.847Z,8.0
2018-06-15T02:17:23.590Z,8.0
2018-06-15T02:18:23.806Z,7.9
2018-06-15T02:19:23.536Z,7.9
2018-06-15T02:20:23.962Z,7.9
2018-06-15T02:21:24.022Z,7.8
2018-06-15T02:22:23.985Z,7.8
2018-06-15T02:23:23.998Z,7.8
2018-06-15T02:24:23.934Z,7.9
2018-06-15T02:25:23.940Z,7.9
2018-06-15T02:26:24.093Z,7.9
2018-06-15T02:27:23.634Z,7.9
2018-06-15T02:28:24.454Z,7.9
2018-06-15T02:29:24.122Z,8.1
2018-06-15T02:30:23.950Z,8.1
2018-06-15T02:31:26.801Z,8.2
2018-06-15T02:32:23.972Z,8.2
2018-06-15T02:33:23.508Z,8.2
2018-06-15T02:34:24.051Z,8.3
2018-06-15T02:35:23.643Z,8.3
2018-06-15T02:36:24.626Z,8.4
2018-06-15T02:37:23.776Z,8.4
2018-06-15T02:38:24.032Z,8.4
2018-06-15T02:39:23.686Z,8.4
2018-06-15T02:40:24.067Z,8.4
2018-06-15T02:41:24.013Z,8.3
2018-06-15T02:42:24.706Z,8.3
2018-06-15T02:43:23.756Z,8.3
2018-06-15T02:44:25.038Z,8.3
2018-06-15T02:45:24.577Z,8.3
2018-06-15T02:46:24.130Z,8.3
2018-06-15T02:47:24.651Z,8.3
2018-06-15T02:48:23.544Z,8.3
2018-06-15T02:49:23.754Z,8.2
2018-06-15T02:50:23.745Z,8.2
2018-06-15T02:51:24.752Z,8.2
2018-06-15T02:52:23.560Z,8.2
2018-06-15T02:53:23.629Z,8.2
2018-06-15T02:54:23.723Z,8.1
2018-06-15T02:55:23.946Z,8.1
2018-06-15T02:56:23.718Z,8.1
2018-06-15T02:57:24.360Z,8.1
2018-06-15T02:58:23.746Z,8.1
2018-06-15T02:59:23.761Z,8.3
2018-06-15T03:00:23.995Z,8.3
2018-06-15T03:01:23.710Z,8.3
2018-06-15T03:02:23.806Z,8.2
2018-06-15T03:03:24.704Z,8.2
2018-06-15T03:04:24.206Z,8.2
2018-06-15T03:05:24.221Z,8.2
2018-06-15T03:06:24.062Z,8.2
2018-06-15T03:07:23.988Z,8.3
2018-06-15T03:08:23.753Z,8.3
2018-06-15T03:09:25.502Z,8.3
2018-06-15T03:10:24.107Z,8.3
2018-06-15T03:11:23.624Z,8.3
2018-06-15T03:12:24.137Z,8.3
2018-06-15T03:13:23.863Z,8.3
2018-06-15T03:14:23.809Z,8.4
2018-06-15T03:15:23.597Z,8.4
2018-06-15T03:16:24.182Z,8.4
2018-06-15T03:17:23.765Z,8.4
2018-06-15T03:18:23.682Z,8.4
2018-06-15T03:19:24.050Z,8.5
2018-06-15T03:20:23.736Z,8.5
2018-06-15T03:21:24.484Z,8.5
2018-06-15T03:22:23.842Z,8.7
2018-06-15T03:23:23.781Z,8.7
2018-06-15T03:25:23.813Z,8.6
2018-06-15T03:26:24.050Z,8.6
2018-06-15T03:27:24.138Z,8.6
2018-06-15T03:28:24.141Z,8.6
2018-06-15T03:29:24.001Z,8.6
2018-06-15T03:30:24.779Z,8.6
2018-06-15T03:31:24.111Z,8.6
2018-06-15T03:32:25.443Z,8.7
2018-06-15T03:33:24.041Z,8.7
2018-06-15T03:34:24.015Z,8.7
2018-06-15T03:35:24.675Z,8.6
2018-06-15T03:36:23.835Z,8.6
2018-06-15T03:37:23.668Z,8.5
2018-06-15T03:38:23.676Z,8.5
2018-06-15T03:39:24.091Z,8.5
2018-06-15T03:40:24.209Z,8.5
2018-06-15T03:41:24.127Z,8.5
2018-06-15T03:42:24.157Z,8.7
2018-06-15T03:43:24.141Z,8.7
2018-06-15T03:44:23.677Z,8.7
2018-06-15T03:45:24.158Z,8.8
2018-06-15T03:46:24.179Z,8.8
2018-06-15T03:47:24.794Z,8.8
2018-06-15T03:48:23.961Z,8.8
2018-06-15T03:49:24.108Z,8.8
2018-06-15T03:50:23.838Z,8.4
2018-06-15T03:51:23.889Z,8.4
2018-06-15T03:52:23.858Z,8.4
2018-06-15T03:53:23.834Z,8.4
2018-06-15T03:54:24.302Z,8.4
2018-06-15T03:55:24.208Z,8.5
2018-06-15T03:56:24.861Z,8.5
2018-06-15T03:57:24.680Z,8.5
2018-06-15T03:58:24.122Z,8.6
2018-06-15T03:59:23.835Z,8.6
2018-06-15T04:00:23.880Z,8.6
2018-06-15T04:01:24.092Z,8.6
2018-06-15T04:02:24.060Z,8.6
2018-06-15T04:03:23.649Z,8.8
2018-06-15T04:04:24.028Z,8.8
2018-06-15T04:05:23.603Z,8.8
2018-06-15T04:06:25.064Z,8.8
2018-06-15T04:07:23.707Z,8.8
2018-06-15T04:08:24.158Z,8.8
2018-06-15T04:09:23.670Z,8.8
2018-06-15T04:10:24.636Z,9.0
2018-06-15T04:11:24.346Z,9.0
2018-06-15T04:12:24.651Z,9.0
2018-06-15T04:13:24.240Z,9.1
2018-06-15T04:14:24.218Z,9.1
2018-06-15T04:15:24.749Z,9.1
2018-06-15T04:16:24.712Z,9.1
2018-06-15T04:17:24.127Z,9.1
2018-06-15T04:18:23.856Z,9.2
2018-06-15T04:19:24.175Z,9.2
2018-06-15T04:20:24.163Z,9.2
2018-06-15T04:21:23.656Z,9.2
2018-06-15T04:22:24.144Z,9.2
2018-06-15T04:23:24.182Z,9.4
2018-06-15T04:24:24.122Z,9.4
2018-06-15T04:25:24.045Z,9.4
2018-06-15T04:26:23.794Z,9.4
2018-06-15T04:27:24.122Z,9.4
2018-06-15T04:28:24.241Z,9.6
2018-06-15T04:29:23.936Z,9.6
2018-06-15T04:30:24.221Z,9.6
2018-06-15T04:31:24.085Z,9.7
2018-06-15T04:32:24.059Z,9.7
2018-06-15T04:33:23.929Z,9.9
2018-06-15T04:34:24.272Z,9.9
2018-06-15T04:35:24.237Z,9.9
2018-06-15T04:36:23.933Z,9.9
2018-06-15T04:37:24.236Z,9.9
2018-06-15T04:38:24.893Z,10.2
2018-06-15T04:39:23.798Z,10.2
2018-06-15T04:40:24.264Z,10.2
2018-06-15T04:41:23.719Z,10.4
2018-06-15T04:42:23.712Z,10.4
2018-06-15T04:43:23.937Z,10.5
2018-06-15T04:44:24.215Z,10.5
2018-06-15T04:45:24.225Z,10.5
2018-06-15T04:46:23.881Z,10.5
2018-06-15T04:47:24.130Z,10.5
2018-06-15T04:48:24.075Z,10.5
2018-06-15T04:49:23.769Z,10.5
2018-06-15T04:50:24.188Z,10.5
2018-06-15T04:51:23.696Z,10.6
2018-06-15T04:52:24.843Z,10.6
2018-06-15T04:53:23.976Z,10.6
2018-06-15T04:54:24.244Z,10.7
2018-06-15T04:55:24.093Z,10.7
2018-06-15T04:56:24.120Z,10.8
2018-06-15T04:57:23.795Z,10.8
2018-06-15T04:58:23.891Z,10.8
2018-06-15T04:59:23.877Z,10.8
2018-06-15T05:00:24.874Z,10.8
2018-06-15T05:01:23.781Z,11.0
2018-06-15T05:02:23.789Z,11.0
2018-06-15T05:03:23.805Z,11.0
2018-06-15T05:04:23.803Z,11.2
2018-06-15T05:05:24.263Z,11.2
2018-06-15T05:06:24.257Z,11.3
2018-06-15T05:07:23.773Z,11.3
2018-06-15T05:08:24.337Z,11.3
2018-06-15T05:09:24.262Z,11.4
2018-06-15T05:10:23.871Z,11.4
2018-06-15T05:11:24.188Z,11.5
2018-06-15T05:12:24.187Z,11.5
2018-06-15T05:13:24.235Z,11.5
2018-06-15T05:14:24.284Z,11.5
2018-06-15T05:15:23.718Z,11.5
2018-06-15T05:16:24.278Z,11.7
2018-06-15T05:17:24.822Z,11.7
2018-06-15T05:18:24.330Z,11.7
2018-06-15T05:19:24.285Z,11.8
2018-06-15T05:20:24.236Z,11.8
2018-06-15T05:21:23.874Z,11.9
2018-06-15T05:22:24.098Z,11.9
2018-06-15T05:23:24.335Z,11.9
2018-06-15T05:24:24.305Z,12.0
2018-06-15T05:26:24.051Z,12.0
2018-06-15T05:27:24.552Z,12.0
2018-06-15T05:28:24.416Z,12.0
2018-06-15T05:29:24.374Z,12.0
2018-06-15T05:30:24.374Z,12.0
2018-06-15T05:31:24.282Z,12.0
2018-06-15T05:32:24.948Z,12.3
2018-06-15T05:33:24.300Z,12.3
2018-06-15T05:34:24.007Z,12.4
2018-06-15T05:35:23.845Z,12.4
2018-06-15T05:36:23.899Z,12.4
2018-06-15T05:37:23.954Z,12.5
2018-06-15T05:38:24.341Z,12.5
2018-06-15T05:39:23.949Z,12.6
2018-06-15T05:40:24.258Z,12.6
2018-06-15T05:41:23.867Z,12.6
2018-06-15T05:42:24.358Z,12.8
2018-06-15T05:43:23.867Z,12.8
2018-06-15T05:45:24.431Z,12.8
2018-06-15T05:46:24.396Z,12.8
2018-06-15T05:47:23.940Z,12.8
2018-06-15T05:48:24.540Z,12.8
2018-06-15T05:49:24.018Z,12.8
2018-06-15T05:50:24.183Z,12.8
2018-06-15T05:51:24.342Z,12.8
2018-06-15T05:52:23.973Z,13.2
2018-06-15T05:53:24.018Z,13.2
2018-06-15T05:54:24.009Z,13.2
2018-06-15T05:55:24.229Z,13.1
2018-06-15T05:56:23.984Z,13.1
2018-06-15T05:57:24.028Z,13.1
2018-06-15T05:58:24.239Z,13.1
2018-06-15T05:59:23.991Z,13.1
2018-06-15T06:00:23.930Z,13.2
2018-06-15T06:01:23.812Z,13.2
2018-06-15T06:02:24.195Z,13.2
2018-06-15T06:03:24.281Z,13.2
2018-06-15T06:04:24.097Z,13.2
2018-06-15T06:05:24.015Z,13.4
2018-06-15T06:06:24.253Z,13.4
2018-06-15T06:07:23.995Z,13.4
2018-06-15T06:08:24.736Z,13.4
2018-06-15T06:09:24.390Z,13.4
2018-06-15T06:10:24.492Z,13.4
2018-06-15T06:11:24.376Z,13.4
2018-06-15T06:12:24.093Z,13.6
2018-06-15T06:13:25.059Z,13.6
2018-06-15T06:14:24.509Z,13.6
2018-06-15T06:15:24.404Z,14.1
2018-06-15T06:16:24.115Z,14.1
2018-06-15T06:17:24.403Z,14.5
2018-06-15T06:18:24.436Z,14.5
2018-06-15T06:19:26.173Z,14.5
2018-06-15T06:20:24.403Z,15.0
2018-06-15T06:21:24.378Z,15.0
2018-06-15T06:22:24.752Z,15.3
2018-06-15T06:23:24.494Z,15.3
2018-06-15T06:24:24.298Z,15.3
2018-06-15T06:25:25.833Z,15.7
2018-06-15T06:26:24.217Z,15.7
2018-06-15T06:27:24.168Z,15.7
2018-06-15T06:28:24.186Z,16.2
2018-06-15T06:29:24.661Z,16.2
2018-06-15T06:30:24.602Z,16.5
2018-06-15T06:31:24.578Z,16.5
2018-06-15T06:32:25.719Z,16.5
2018-06-15T06:33:24.037Z,16.9
2018-06-15T06:34:24.480Z,16.9
2018-06-15T06:35:24.329Z,17.2
2018-06-15T06:36:23.960Z,17.2
2018-06-15T06:37:24.472Z,17.2
2018-06-15T06:38:24.155Z,17.5
2018-06-15T06:39:26.404Z,17.5
2018-06-15T06:40:26.626Z,17.8
2018-06-15T06:41:26.324Z,17.8
2018-06-15T06:42:32.833Z,17.8
2018-06-15T06:43:24.677Z,18.0
2018-06-15T06:44:24.396Z,18.0
2018-06-15T06:45:24.255Z,18.1
2018-06-15T06:46:24.141Z,18.1
2018-06-15T06:47:24.297Z,18.1
2018-06-15T06:48:24.280Z,18.4
2018-06-15T06:49:23.861Z,18.4
2018-06-15T06:50:26.699Z,18.4
2018-06-15T06:51:24.127Z,18.4
2018-06-15T06:52:24.585Z,18.4
2018-06-15T06:53:24.490Z,18.8
2018-06-15T06:54:25.317Z,18.8
2018-06-15T06:55:26.848Z,18.8
2018-06-15T06:56:24.262Z,18.9
2018-06-15T06:57:25.168Z,18.9
2018-06-15T06:58:24.484Z,19.1
2018-06-15T06:59:24.289Z,19.1
2018-06-15T07:02:05.685Z,19.1
2018-06-15T07:02:14.666Z,19.1
2018-06-15T07:03:13.890Z,19.4
2018-06-15T07:04:14.168Z,19.4
2018-06-15T07:05:14.297Z,19.4
2018-06-15T07:06:14.955Z,19.6
2018-06-15T07:07:13.916Z,19.6
2018-06-15T07:08:13.928Z,19.7
2018-06-15T07:09:13.942Z,19.7
2018-06-15T07:10:16.222Z,19.7
2018-06-15T07:12:27.660Z,20.0
2018-06-15T07:13:27.663Z,20.3
2018-06-15T07:14:27.370Z,20.3
2018-06-15T07:15:27.124Z,20.3
2018-06-15T07:16:27.429Z,20.6
2018-06-15T07:17:27.108Z,20.6
2018-06-15T07:18:28.461Z,21.1
2018-06-15T07:19:27.423Z,21.1
2018-06-15T07:20:27.158Z,21.1
2018-06-15T07:21:27.408Z,21.4
2018-06-15T07:22:29.684Z,21.4
2018-06-15T07:23:27.093Z,21.5
2018-06-15T07:24:27.288Z,21.5
2018-06-15T07:25:27.614Z,21.5
2018-06-15T07:26:27.685Z,21.6
2018-06-15T07:27:27.190Z,21.6
2018-06-15T07:28:28.059Z,21.6
2018-06-15T07:29:27.866Z,21.9
2018-06-15T07:30:27.626Z,21.9
2018-06-15T07:31:27.069Z,21.9
2018-06-15T07:32:27.048Z,21.9
2018-06-15T07:33:27.067Z,21.9
2018-06-15T07:34:27.066Z,22.4
2018-06-15T07:35:27.542Z,22.4
2018-06-15T07:36:27.100Z,22.6
2018-06-15T07:37:27.622Z,22.6
2018-06-15T07:38:27.538Z,22.6
2018-06-15T07:39:27.138Z,22.8
2018-06-15T07:40:27.631Z,22.8
2018-06-15T07:41:27.396Z,22.6
2018-06-15T07:42:27.071Z,22.6
2018-06-15T07:43:27.655Z,22.6
2018-06-15T07:44:27.623Z,22.4
2018-06-15T07:45:27.480Z,22.4
2018-06-15T07:46:27.379Z,21.8
2018-06-15T07:47:27.133Z,21.8
2018-06-15T07:48:28.157Z,21.8
2018-06-15T07:49:27.652Z,21.6
2018-06-15T07:50:28.139Z,21.6
2018-06-15T07:51:27.607Z,21.6
2018-06-15T07:52:43.721Z,21.6
2018-06-15T07:53:27.592Z,21.6
2018-06-15T07:54:27.519Z,20.7
2018-06-15T07:55:27.204Z,20.7
2018-06-15T07:56:27.023Z,20.0
2018-06-15T07:57:27.300Z,20.0
2018-06-15T07:58:27.429Z,20.0
2018-06-15T07:59:27.263Z,19.3
2018-06-15T08:00:27.420Z,19.3
2018-06-15T08:01:28.731Z,19.3
2018-06-15T08:05:36.743Z,19.2
2018-06-15T08:06:37.530Z,19.5
2018-06-15T08:07:37.117Z,19.5
2018-06-15T08:08:37.298Z,19.5
2018-06-15T08:09:37.375Z,19.8
2018-06-15T08:10:37.517Z,19.8
2018-06-15T08:11:37.303Z,19.8
2018-06-15T08:12:38.363Z,19.8
2018-06-15T08:13:36.924Z,19.8
2018-06-15T08:14:37.379Z,20.5
2018-06-15T08:15:37.302Z,20.5
2018-06-15T08:16:37.139Z,20.5
2018-06-15T08:17:37.366Z,20.3
2018-06-15T08:18:37.414Z,20.3
2018-06-15T08:19:37.051Z,20.3
2018-06-15T08:20:37.400Z,20.3
2018-06-15T08:21:36.893Z,20.3
2018-06-15T08:22:36.975Z,20.0
2018-06-15T08:23:37.088Z,20.0
2018-06-15T08:24:47.790Z,20.7
2018-06-15T08:25:36.945Z,20.7
2018-06-15T08:26:37.355Z,20.7
2018-06-15T08:27:36.867Z,21.1
2018-06-15T08:28:38.130Z,21.1
2018-06-15T08:29:36.935Z,20.8
2018-06-15T08:30:37.062Z,20.8
2018-06-15T08:31:37.427Z,20.8
2018-06-15T08:32:37.399Z,20.8
2018-06-15T08:33:36.932Z,20.8
2018-06-15T08:34:37.133Z,21.0
2018-06-15T08:35:38.138Z,21.0
2018-06-15T08:36:38.455Z,21.0
2018-06-15T08:37:36.953Z,21.2
2018-06-15T08:38:37.754Z,21.2
2018-06-15T08:39:37.508Z,21.2
2018-06-15T08:40:36.951Z,20.6
2018-06-15T08:41:37.084Z,20.6
2018-06-15T08:42:37.364Z,20.1
2018-06-15T08:43:38.041Z,20.1
2018-06-15T08:44:37.374Z,20.1
2018-06-15T08:45:37.386Z,20.1
2018-06-15T08:46:37.124Z,20.1
2018-06-15T08:47:38.384Z,19.7
2018-06-15T08:48:37.333Z,19.7
2018-06-15T08:49:37.888Z,19.7
2018-06-15T08:50:37.092Z,19.6
2018-06-15T08:51:37.327Z,19.6
2018-06-15T08:52:37.411Z,19.6
2018-06-15T08:53:37.092Z,19.6
2018-06-15T08:54:37.267Z,19.6
2018-06-15T08:55:36.988Z,19.6
2018-06-15T08:56:37.345Z,19.6
2018-06-15T08:57:37.039Z,19.3
2018-06-15T08:58:37.975Z,19.3
2018-06-15T08:59:36.942Z,19.3
2018-06-15T09:00:37.107Z,19.5
2018-06-15T09:01:37.127Z,19.5
2018-06-15T09:02:37.469Z,19.6
2018-06-15T09:03:37.331Z,19.6
2018-06-15T09:04:36.963Z,19.6
2018-06-15T09:05:37.850Z,19.4
2018-06-15T09:06:37.561Z,19.4
2018-06-15T09:07:37.052Z,19.1
2018-06-15T09:08:36.996Z,19.1
2018-06-15T09:09:37.045Z,19.1
2018-06-15T09:10:37.424Z,19.4
2018-06-15T09:11:47.415Z,19.4
2018-06-15T09:12:37.013Z,19.4
2018-06-15T09:13:37.436Z,19.7
2018-06-15T09:14:37.435Z,19.7
2018-06-15T09:15:37.179Z,20.3
2018-06-15T09:16:37.011Z,20.3
2018-06-15T09:17:37.475Z,20.3
2018-06-15T09:18:37.839Z,20.8
2018-06-15T09:19:37.443Z,20.8
2018-06-15T09:20:37.449Z,20.9
2018-06-15T09:21:37.156Z,20.9
2018-06-15T09:22:37.483Z,20.9
2018-06-15T09:23:38.050Z,21.3
2018-06-15T09:24:37.253Z,21.3
2018-06-15T09:25:37.436Z,22.0
2018-06-15T09:26:37.120Z,22.0
2018-06-15T09:27:37.481Z,22.0
2018-06-15T09:28:37.487Z,22.4
2018-06-15T09:29:36.928Z,22.4
2018-06-15T09:30:36.907Z,21.7
2018-06-15T09:31:37.185Z,21.7
2018-06-15T09:32:37.573Z,21.7
2018-06-15T09:33:37.404Z,21.7
2018-06-15T09:34:37.959Z,21.7
2018-06-15T09:35:37.422Z,21.9
2018-06-15T09:36:37.026Z,21.9
2018-06-15T09:37:37.488Z,21.9
2018-06-15T09:38:37.549Z,22.6
2018-06-15T09:39:37.394Z,22.6
2018-06-15T09:40:37.433Z,22.6
2018-06-15T09:41:37.535Z,23.3
2018-06-15T09:42:37.364Z,23.3
2018-06-15T09:43:37.497Z,23.4
2018-06-15T09:44:37.602Z,23.4
2018-06-15T09:45:37.440Z,23.4
2018-06-15T09:46:37.533Z,21.5
2018-06-15T09:47:37.499Z,21.5
2018-06-15T09:48:38.222Z,21.0
2018-06-15T09:49:37.592Z,21.0
2018-06-15T09:50:37.104Z,21.0
2018-06-15T09:51:38.066Z,21.0
2018-06-15T09:52:37.622Z,21.0
2018-06-15T09:53:37.123Z,20.6
2018-06-15T09:54:37.601Z,20.6
2018-06-15T09:55:37.635Z,20.6
2018-06-15T09:56:37.044Z,20.6
2018-06-15T09:57:37.539Z,20.6
2018-06-15T09:58:37.962Z,20.9
2018-06-15T09:59:37.881Z,20.9
2018-06-15T10:00:37.244Z,20.9
2018-06-15T10:01:36.969Z,21.3
2018-06-15T10:02:37.060Z,21.3
2018-06-15T10:03:53.542Z,20.8
2018-06-15T10:04:37.239Z,20.8
2018-06-15T10:05:37.588Z,20.8
2018-06-15T10:06:37.953Z,20.8
2018-06-15T10:07:37.274Z,20.8
2018-06-15T10:08:37.886Z,21.0
2018-06-15T10:09:37.515Z,21.0
2018-06-15T10:10:37.185Z,21.0
2018-06-15T10:11:37.579Z,21.1
2018-06-15T10:12:37.255Z,21.1
2018-06-15T10:13:36.977Z,21.1
2018-06-15T10:14:37.959Z,21.1
2018-06-15T10:15:37.597Z,21.1
2018-06-15T10:16:37.568Z,20.7
2018-06-15T10:17:37.508Z,20.7
2018-06-15T10:18:37.105Z,20.7
2018-06-15T10:19:36.974Z,20.8
2018-06-15T10:20:37.419Z,20.8
2018-06-15T10:21:37.526Z,21.0
2018-06-15T10:22:37.880Z,21.0
2018-06-15T10:23:37.376Z,21.0
2018-06-15T10:24:47.798Z,21.2
2018-06-15T10:25:37.103Z,21.2
2018-06-15T10:26:37.655Z,21.8
2018-06-15T10:27:37.412Z,21.8
2018-06-15T10:28:37.535Z,21.8
2018-06-15T10:29:37.280Z,22.1
2018-06-15T10:30:37.181Z,22.1
2018-06-15T10:31:37.288Z,22.4
2018-06-15T10:32:37.692Z,22.4
2018-06-15T10:33:37.550Z,22.4
2018-06-15T10:36:46.357Z,21.8
2018-06-15T10:37:47.610Z,21.4
2018-06-15T10:38:46.999Z,21.4
2018-06-15T10:39:47.282Z,21.7
2018-06-15T10:40:47.286Z,21.7
2018-06-15T10:41:47.648Z,21.7
2018-06-15T10:42:47.580Z,21.7
2018-06-15T10:43:47.549Z,21.7
2018-06-15T10:44:47.472Z,22.4
2018-06-15T10:45:48.340Z,22.4
2018-06-15T10:46:47.053Z,22.7
2018-06-15T10:47:47.491Z,22.7
2018-06-15T10:48:47.604Z,22.7
2018-06-15T10:49:47.251Z,22.4
2018-06-15T10:50:48.059Z,22.4
2018-06-15T10:51:47.073Z,22.4
2018-06-15T10:52:47.506Z,22.2
2018-06-15T10:53:47.302Z,22.2
2018-06-15T10:54:48.172Z,22.2
2018-06-15T10:55:47.336Z,22.2
2018-06-15T10:56:47.474Z,22.2
2018-06-15T10:57:47.282Z,21.7
2018-06-15T10:58:47.350Z,21.7
2018-06-15T10:59:47.207Z,21.2
2018-06-15T11:00:47.541Z,21.2
2018-06-15T11:01:47.490Z,21.2
2018-06-15T11:02:47.466Z,21.1
2018-06-15T11:03:47.067Z,21.1
2018-06-15T11:04:49.522Z,20.9
2018-06-15T11:05:47.375Z,20.9
2018-06-15T11:06:47.564Z,20.9
2018-06-15T11:07:47.628Z,21.0
2018-06-15T11:08:48.345Z,21.0
2018-06-15T11:09:48.959Z,21.0
2018-06-15T11:10:47.481Z,21.0
2018-06-15T11:11:47.574Z,21.0
2018-06-15T11:12:47.785Z,21.0
2018-06-15T11:13:47.572Z,21.0
2018-06-15T11:18:05.600Z,21.6
2018-06-15T11:18:17.218Z,21.6
2018-06-15T11:19:16.684Z,21.5
2018-06-15T11:20:17.181Z,21.6
2018-06-15T11:21:16.675Z,21.6
2018-06-15T11:22:17.170Z,21.6
2018-06-15T11:23:17.139Z,22.0
2018-06-15T11:24:17.211Z,22.0
2018-06-15T11:25:16.943Z,22.3
2018-06-15T11:26:17.588Z,22.3
2018-06-15T11:27:18.532Z,22.3
2018-06-15T11:28:17.241Z,21.6
2018-06-15T11:29:16.620Z,21.6
2018-06-15T11:30:17.631Z,21.6
2018-06-15T11:31:16.840Z,21.6
2018-06-15T11:32:17.220Z,21.6
2018-06-15T11:33:17.093Z,20.9
2018-06-15T11:34:17.246Z,20.9
2018-06-15T11:35:17.625Z,20.9
2018-06-15T11:36:17.267Z,20.9
2018-06-15T11:37:17.892Z,20.9
2018-06-15T11:38:16.517Z,20.4
2018-06-15T11:39:16.836Z,20.4
2018-06-15T11:40:17.162Z,20.3
2018-06-15T11:41:16.766Z,20.3
2018-06-15T11:42:17.234Z,20.3
2018-06-15T11:43:17.151Z,20.3
2018-06-15T11:44:16.969Z,20.3
2018-06-15T11:45:17.431Z,20.4
2018-06-15T11:46:17.507Z,20.4
2018-06-15T11:47:17.741Z,20.4
2018-06-15T11:48:16.992Z,20.6
2018-06-15T11:49:17.956Z,20.6
2018-06-15T11:50:16.874Z,21.0
2018-06-15T11:51:17.805Z,21.0
2018-06-15T11:52:16.611Z,21.0
2018-06-15T11:53:16.766Z,21.4
2018-06-15T11:54:17.721Z,21.4
2018-06-15T11:55:27.381Z,21.4
2018-06-15T11:56:17.146Z,22.0
2018-06-15T11:57:16.604Z,22.0
2018-06-15T11:58:17.251Z,21.9
2018-06-15T11:59:17.124Z,21.9
2018-06-15T12:00:16.972Z,21.9
2018-06-15T12:01:17.097Z,21.9
2018-06-15T12:02:16.702Z,21.9
2018-06-15T12:03:16.742Z,21.6
2018-06-15T12:04:16.840Z,21.6
2018-06-15T12:05:17.146Z,21.6
2018-06-15T12:06:17.314Z,21.5
2018-06-15T12:07:17.167Z,21.5
2018-06-15T12:08:16.879Z,21.5
2018-06-15T12:09:17.578Z,21.5
2018-06-15T12:10:17.158Z,21.5
2018-06-15T12:11:17.270Z,21.7
2018-06-15T12:12:17.365Z,21.7
2018-06-15T12:13:17.473Z,21.8
2018-06-15T12:14:18.412Z,21.8
2018-06-15T12:15:17.084Z,21.8
2018-06-15T12:16:16.734Z,21.8
2018-06-15T12:17:17.011Z,21.8
2018-06-15T12:18:17.091Z,22.0
2018-06-15T12:19:17.089Z,22.0
2018-06-15T12:20:16.944Z,22.0
2018-06-15T12:21:16.738Z,22.4
2018-06-15T12:22:18.191Z,22.4
2018-06-15T12:23:17.056Z,22.4
2018-06-15T12:24:16.910Z,22.8
2018-06-15T12:25:16.732Z,22.8
2018-06-15T12:26:16.920Z,22.6
2018-06-15T12:27:17.189Z,22.6
2018-06-15T12:28:17.087Z,22.6
2018-06-15T12:29:16.879Z,21.7
2018-06-15T12:30:17.464Z,21.7
2018-06-15T12:31:16.842Z,20.8
2018-06-15T12:32:17.277Z,20.8
2018-06-15T12:33:17.952Z,20.8
2018-06-15T12:34:17.125Z,20.8
2018-06-15T12:35:16.968Z,20.8
2018-06-15T12:36:17.290Z,21.2
2018-06-15T12:37:17.852Z,21.2
2018-06-15T12:38:17.291Z,21.2
2018-06-15T12:39:16.793Z,21.5
2018-06-15T12:40:17.332Z,21.5
2018-06-15T12:41:17.180Z,21.9
2018-06-15T12:42:17.243Z,21.9
2018-06-15T12:43:33.361Z,21.9
2018-06-15T12:44:16.842Z,21.3
2018-06-15T12:45:17.031Z,21.3
2018-06-15T12:46:16.834Z,21.3
2018-06-15T12:47:16.963Z,21.3
2018-06-15T12:48:17.034Z,21.3
2018-06-15T12:49:17.452Z,21.7
2018-06-15T12:50:17.373Z,21.7
2018-06-15T12:51:17.206Z,22.0
2018-06-15T12:52:17.643Z,22.0
2018-06-15T12:55:22.347Z,22.0
2018-06-15T12:56:22.084Z,21.8
2018-06-15T12:57:21.736Z,21.8
2018-06-15T12:58:22.087Z,21.8
2018-06-15T12:59:22.516Z,21.8
2018-06-15T13:00:22.086Z,21.8
2018-06-15T13:01:21.935Z,21.8
2018-06-15T13:02:21.956Z,22.0
2018-06-15T13:03:22.099Z,22.0
2018-06-15T13:04:21.563Z,21.9
2018-06-15T13:05:22.068Z,21.9
2018-06-15T13:06:21.869Z,21.9
2018-06-15T13:07:21.513Z,21.9
2018-06-15T13:08:22.249Z,21.9
2018-06-15T13:09:22.256Z,21.8
2018-06-15T13:10:22.020Z,21.8
2018-06-15T13:11:21.758Z,21.8
2018-06-15T13:12:22.267Z,22.3
2018-06-15T13:13:22.589Z,22.3
2018-06-15T13:14:22.086Z,22.8
2018-06-15T13:15:21.917Z,22.8
2018-06-15T13:16:21.776Z,22.8
2018-06-15T13:17:22.109Z,22.9
2018-06-15T13:18:21.816Z,22.9
2018-06-15T13:19:21.733Z,23.3
2018-06-15T13:20:22.163Z,23.3
2018-06-15T13:21:21.926Z,23.3
2018-06-15T13:22:22.198Z,22.6
2018-06-15T13:34:21.604Z,22.1
2018-06-15T13:35:21.989Z,22.0
2018-06-15T13:36:21.240Z,22.0
2018-06-15T13:37:21.544Z,22.0
2018-06-15T13:38:21.065Z,22.0
2018-06-15T13:39:21.569Z,22.0
2018-06-15T13:40:22.663Z,22.2
2018-06-15T13:41:21.568Z,22.2
2018-06-15T13:42:21.652Z,22.0
2018-06-15T13:43:21.319Z,22.0
2018-06-15T13:46:02.592Z,22.0
2018-06-15T13:46:12.296Z,22.0
2018-06-15T13:47:11.594Z,21.8
2018-06-15T13:48:11.608Z,21.8
2018-06-15T13:49:11.256Z,21.8
2018-06-15T13:50:11.013Z,21.9
2018-06-15T13:51:11.183Z,21.9
2018-06-15T13:52:11.838Z,21.9
2018-06-15T13:53:10.748Z,21.9
2018-06-15T13:54:11.324Z,21.9
2018-06-15T13:55:11.706Z,21.3
2018-06-15T13:56:11.117Z,21.3